Terminal Aerodrome Forecast
Issued by NWS Charleston, WV

Current Version | Previous Version | Text Only | Print | Product List | Glossary On
Versions: 1 2 3 4 5 6 7 8 9 10 11 12 13 14 15 16 17 18 19 20 21 22 23 24 25 26
000
FTUS41 KRLX 011100
TAFHTS
TAF
KHTS 011123Z 0112/0212 00000KT P6SM FEW026 OVC110
     FM012200 17008KT P6SM -RA OVC030
     FM020000 18011G17KT 2SM -RA BR OVC025
     FM020700 22010G15KT 3SM -RA BR OVC008
     FM021000 27011G16KT 6SM -RASN BR OVC008
     FM021100 27011G17KT P6SM -SN BKN008=

USA.gov is the U.S. government's official web portal to all federal, state and local government web resources and services.